Time;durP1;ratioP1;P1;durP2;ratioP2;P2;SDS_P1;SDS_P2;PMS_P1;PMS_P2;Temp;Humidity;BMP_temperature;BMP_pressure;BME280_temperature;BME280_humidity;BME280_pressure;Samples;Min_cycle;Max_cycle;Signal;HPM_P1;HPM_P2
2021/04/29 00:00:18;;;;;;;;;;;;;;;21.98;34.56;100598.28;2167996;40;114907;-59
2021/04/29 00:01:49;;;;;;;;;;;;;;;21.95;34.90;100598.94;2173459;40;114969;-59
2021/04/29 00:03:21;;;;;;;;;;;;;;;21.97;34.88;100607.06;2162657;40;114891;-57
2021/04/29 00:04:53;;;;;;;;;;;;;;;21.96;34.93;100602.56;2165888;40;114336;-58
2021/04/29 00:06:25;;;;;;;;;;;;;;;21.93;34.77;100597.59;2168096;40;114656;-57
2021/04/29 00:07:58;;;;;;;;;;;;;;;21.91;34.88;100600.72;2166809;40;114973;-56
2021/04/29 00:09:30;;;;;;;;;;;;;;;21.92;34.99;100599.56;2167800;40;114865;-58
2021/04/29 00:11:03;;;;;;;;;;;;;;;21.90;35.02;100598.22;2167621;40;114969;-56
2021/04/29 00:12:34;;;;;;;;;;;;;;;21.89;35.23;100602.19;2161117;40;115263;-56
2021/04/29 00:14:11;;;;;;;;;;;;;;;21.88;34.97;100604.19;2168841;40;115007;-57
2021/04/29 00:15:44;;;;;;;;;;;;;;;21.86;34.97;100602.84;2168528;40;115279;-57
2021/04/29 00:17:16;;;;;;;;;;;;;;;21.87;35.07;100605.34;2170452;40;114992;-61
2021/04/29 00:18:47;;;;;;;;;;;;;;;21.86;35.01;100594.41;2170811;40;115591;-59
2021/04/29 00:20:21;;;;;;;;;;;;;;;21.86;34.65;100606.47;2168906;40;115896;-56
2021/04/29 00:21:52;;;;;;;;;;;;;;;21.85;34.68;100599.19;2167253;40;115303;-56
2021/04/29 00:23:24;;;;;;;;;;;;;;;21.87;35.14;100604.50;2167951;40;115748;-57
2021/04/29 00:24:57;;;;;;;;;;;;;;;21.83;35.20;100609.13;2164207;40;114487;-55
2021/04/29 00:26:28;;;;;;;;;;;;;;;21.85;34.68;100601.19;2166714;40;116162;-57
2021/04/29 00:27:59;;;;;;;;;;;;;;;21.81;34.96;100601.00;2172796;40;114521;-56
2021/04/29 00:29:31;;;;;;;;;;;;;;;21.82;35.22;100605.47;2163260;40;116022;-55
2021/04/29 00:32:37;;;;;;;;;;;;;;;21.83;34.61;100606.31;2167288;40;116685;-58
2021/04/29 00:34:08;;;;;;;;;;;;;;;21.81;35.00;100606.63;2168229;40;115799;-58
2021/04/29 00:35:40;;;;;;;;;;;;;;;21.80;34.72;100610.63;2166907;40;116089;-56
2021/04/29 00:37:12;;;;;;;;;;;;;;;21.78;34.71;100610.09;2166751;40;115522;-55
2021/04/29 00:38:44;;;;;;;;;;;;;;;21.77;34.95;100602.81;2169641;40;115788;-57
2021/04/29 00:40:15;;;;;;;;;;;;;;;21.80;35.04;100609.78;2167104;40;113985;-58
2021/04/29 00:41:47;;;;;;;;;;;;;;;21.79;34.48;100605.31;2168004;40;113731;-57
2021/04/29 00:43:18;;;;;;;;;;;;;;;21.75;35.06;100602.31;2169732;40;114095;-56
2021/04/29 00:44:49;;;;;;;;;;;;;;;21.76;34.84;100603.16;2162579;40;114874;-61
2021/04/29 00:46:21;;;;;;;;;;;;;;;21.74;34.84;100598.69;2165367;40;113603;-55
2021/04/29 00:47:53;;;;;;;;;;;;;;;21.72;35.14;100598.16;2168360;40;114142;-55
2021/04/29 00:49:24;;;;;;;;;;;;;;;21.71;34.98;100596.50;2164288;40;114233;-55
2021/04/29 00:50:56;;;;;;;;;;;;;;;21.71;34.73;100602.13;2166665;40;113885;-56
2021/04/29 00:52:29;;;;;;;;;;;;;;;21.71;35.23;100593.69;2167466;40;114427;-57
2021/04/29 00:54:01;;;;;;;;;;;;;;;21.69;35.08;100598.81;2165555;40;113850;-58
2021/04/29 00:55:33;;;;;;;;;;;;;;;21.68;35.20;100590.69;2169026;40;113932;-55
2021/04/29 00:57:05;;;;;;;;;;;;;;;21.71;35.05;100596.50;2165757;40;114326;-53
2021/04/29 00:58:37;;;;;;;;;;;;;;;21.69;35.05;100590.38;2167328;40;114851;-56
2021/04/29 01:00:10;;;;;;;;;;;;;;;21.68;35.13;100591.53;2170929;40;113591;-54
2021/04/29 01:01:41;;;;;;;;;;;;;;;21.69;34.69;100592.38;2171506;40;115569;-57
2021/04/29 01:03:16;;;;;;;;;;;;;;;21.66;35.21;100601.47;2169310;40;114524;-57
2021/04/29 01:04:47;;;;;;;;;;;;;;;21.63;35.25;100590.84;2165941;40;114955;-55
2021/04/29 01:06:22;;;;;;;;;;;;;;;21.63;35.05;100593.66;2167121;40;115000;-57
2021/04/29 01:07:58;;;;;;;;;;;;;;;21.62;34.84;100589.22;2166741;40;115112;-57
2021/04/29 01:09:29;;;;;;;;;;;;;;;21.61;35.03;100590.34;2172171;40;115719;-55
2021/04/29 01:11:04;;;;;;;;;;;;;;;21.60;34.81;100583.91;2169346;40;115341;-53
2021/04/29 01:12:41;;;;;;;;;;;;;;;21.60;35.36;100583.91;2167391;40;115350;-57
2021/04/29 01:14:13;;;;;;;;;;;;;;;21.60;35.43;100580.25;2172449;40;114415;-58
2021/04/29 01:15:46;;;;;;;;;;;;;;;21.62;35.25;100583.59;2166400;40;114770;-57
2021/04/29 01:17:18;;;;;;;;;;;;;;;21.58;34.96;100574.94;2166559;40;114968;-57
2021/04/29 01:18:51;;;;;;;;;;;;;;;21.59;35.25;100587.03;2162837;40;115595;-54
2021/04/29 01:20:29;;;;;;;;;;;;;;;21.55;35.17;100578.41;2167035;40;114892;-55
2021/04/29 01:22:00;;;;;;;;;;;;;;;21.57;35.33;100580.91;2169082;40;115048;-53
2021/04/29 01:23:33;;;;;;;;;;;;;;;21.56;35.17;100577.28;2171655;40;115302;-57
2021/04/29 01:25:06;;;;;;;;;;;;;;;21.56;35.44;100573.63;2168441;40;116107;-55
2021/04/29 01:26:42;;;;;;;;;;;;;;;21.56;35.54;100577.28;2166551;40;115689;-56
2021/04/29 01:28:14;;;;;;;;;;;;;;;21.55;35.12;100586.00;2173147;40;115540;-56
2021/04/29 01:29:46;;;;;;;;;;;;;;;21.54;35.11;100578.72;2162258;40;115567;-57
2021/04/29 01:31:21;;;;;;;;;;;;;;;21.55;35.60;100578.41;2172203;40;115968;-55
2021/04/29 01:32:54;;;;;;;;;;;;;;;21.53;35.06;100568.66;2162911;40;115527;-59
2021/04/29 01:34:28;;;;;;;;;;;;;;;21.54;35.52;100571.13;2161581;40;115653;-58
2021/04/29 01:35:59;;;;;;;;;;;;;;;21.51;35.35;100579.38;2167130;40;115687;-57
2021/04/29 01:37:32;;;;;;;;;;;;;;;21.52;35.47;100579.06;2170777;40;115464;-54
2021/04/29 01:39:05;;;;;;;;;;;;;;;21.52;35.68;100576.25;2168544;40;115675;-59
2021/04/29 01:40:37;;;;;;;;;;;;;;;21.51;35.54;100579.38;2167469;40;115763;-59
2021/04/29 01:42:10;;;;;;;;;;;;;;;21.49;35.71;100578.88;2167632;40;115496;-61
2021/04/29 01:43:42;;;;;;;;;;;;;;;21.49;35.30;100576.06;2161480;40;115782;-55
2021/04/29 01:45:14;;;;;;;;;;;;;;;21.50;35.17;100587.00;2174041;40;115602;-57
2021/04/29 01:46:46;;;;;;;;;;;;;;;21.49;35.62;100592.91;2162987;40;115396;-57
2021/04/29 01:48:18;;;;;;;;;;;;;;;21.45;35.28;100580.66;2166007;40;114008;-56
2021/04/29 01:49:50;;;;;;;;;;;;;;;21.46;35.66;100585.97;2169442;40;113757;-58
2021/04/29 01:51:22;;;;;;;;;;;;;;;21.46;35.24;100588.78;2165385;40;113875;-58
2021/04/29 01:52:54;;;;;;;;;;;;;;;21.45;35.53;100583.47;2168220;40;113979;-59
2021/04/29 01:54:25;;;;;;;;;;;;;;;21.45;35.65;100584.31;2167875;40;114210;-57
2021/04/29 01:55:57;;;;;;;;;;;;;;;21.42;35.90;100590.59;2169404;40;113986;-58
2021/04/29 01:57:28;;;;;;;;;;;;;;;21.42;35.68;100586.94;2162728;40;114108;-57
2021/04/29 01:59:00;;;;;;;;;;;;;;;21.40;35.40;100592.88;2166069;40;113948;-57
2021/04/29 02:00:31;;;;;;;;;;;;;;;21.41;35.25;100593.72;2174121;40;113872;-57
2021/04/29 02:03:39;;;;;;;;;;;;;;;21.37;35.80;100590.72;2168430;40;113653;-54
2021/04/29 02:05:13;;;;;;;;;;;;;;;21.37;35.28;100599.16;2158640;40;114812;-58
2021/04/29 02:06:46;;;;;;;;;;;;;;;21.36;35.56;100596.66;2173212;40;113918;-56
2021/04/29 02:08:17;;;;;;;;;;;;;;;21.36;35.57;100593.84;2160872;40;115203;-55
2021/04/29 02:09:49;;;;;;;;;;;;;;;21.32;35.64;100593.69;2168285;40;115225;-56
2021/04/29 02:11:23;;;;;;;;;;;;;;;21.33;35.38;100598.16;2169190;40;115240;-57
2021/04/29 02:12:55;;;;;;;;;;;;;;;21.31;35.71;100592.00;2168664;40;115086;-56
2021/04/29 02:14:32;;;;;;;;;;;;;;;21.32;35.79;100598.47;2168759;40;115472;-56
2021/04/29 02:16:08;;;;;;;;;;;;;;;21.30;35.37;100598.81;2165908;40;115053;-57
2021/04/29 02:17:42;;;;;;;;;;;;;;;21.32;35.38;100592.84;2169151;40;115034;-55
2021/04/29 02:19:18;;;;;;;;;;;;;;;21.27;35.62;100597.44;2169995;40;115348;-58
2021/04/29 02:20:50;;;;;;;;;;;;;;;21.27;35.63;100608.69;2167858;40;114862;-59
2021/04/29 02:22:22;;;;;;;;;;;;;;;21.27;35.44;100600.25;2173935;40;114966;-58
2021/04/29 02:23:54;;;;;;;;;;;;;;;21.26;36.01;100606.19;2170300;40;115064;-56
2021/04/29 02:25:27;;;;;;;;;;;;;;;21.26;35.52;100600.56;2165292;40;115077;-56
2021/04/29 02:26:58;;;;;;;;;;;;;;;21.25;35.56;100598.94;2165812;40;114958;-56
2021/04/29 02:28:30;;;;;;;;;;;;;;;21.25;35.70;100604.56;2169311;40;114953;-56
2021/04/29 02:30:04;;;;;;;;;;;;;;;21.23;35.91;100610.50;2167986;40;114687;-59
2021/04/29 02:31:36;;;;;;;;;;;;;;;21.24;35.71;100605.69;2173212;40;115925;-55
2021/04/29 02:33:08;;;;;;;;;;;;;;;21.23;35.60;100599.25;2170188;40;116004;-54
2021/04/29 02:34:41;;;;;;;;;;;;;;;21.22;36.15;100605.19;2168159;40;115444;-59
2021/04/29 02:36:12;;;;;;;;;;;;;;;21.20;35.95;100613.13;2168718;40;115121;-57
2021/04/29 02:37:45;;;;;;;;;;;;;;;21.22;35.59;100606.00;2168209;40;115951;-58
2021/04/29 02:39:16;;;;;;;;;;;;;;;21.21;35.86;100601.53;2155365;40;115564;-58
2021/04/29 02:40:47;;;;;;;;;;;;;;;21.19;36.18;100608.66;2164455;40;115423;-55
2021/04/29 02:42:22;;;;;;;;;;;;;;;21.19;35.85;100603.03;2167575;40;115687;-59
2021/04/29 02:43:54;;;;;;;;;;;;;;;21.17;35.83;100608.97;2170420;40;115728;-53
2021/04/29 02:45:26;;;;;;;;;;;;;;;21.17;36.07;100613.75;2166977;40;116646;-56
2021/04/29 02:46:59;;;;;;;;;;;;;;;21.17;36.00;100611.75;2168239;40;116622;-61
2021/04/29 02:48:31;;;;;;;;;;;;;;;21.17;36.26;100616.56;2165770;40;115582;-59
2021/04/29 02:50:03;;;;;;;;;;;;;;;21.17;36.42;100614.56;2175467;40;116102;-57
2021/04/29 02:51:37;;;;;;;;;;;;;;;21.16;36.29;100614.91;2170674;40;113761;-59
2021/04/29 02:53:13;;;;;;;;;;;;;;;21.15;36.63;100621.69;2161404;40;113947;-57
2021/04/29 02:54:45;;;;;;;;;;;;;;;21.13;36.35;100619.19;2166617;40;114259;-61
2021/04/29 02:56:17;;;;;;;;;;;;;;;21.13;36.08;100619.19;2168129;40;115576;-60
2021/04/29 02:57:49;;;;;;;;;;;;;;;21.12;36.15;100623.09;2168756;40;114063;-61
2021/04/29 02:59:22;;;;;;;;;;;;;;;21.13;36.11;100619.19;2167573;40;113986;-56
2021/04/29 03:00:54;;;;;;;;;;;;;;;21.13;36.28;100621.16;2168139;40;114254;-61
2021/04/29 03:02:26;;;;;;;;;;;;;;;21.12;36.45;100625.09;2173724;40;114309;-59
2021/04/29 03:03:58;;;;;;;;;;;;;;;21.12;36.30;100625.09;2168986;40;113821;-60
2021/04/29 03:05:30;;;;;;;;;;;;;;;21.10;36.60;100621.78;2165910;40;113977;-59
2021/04/29 03:07:02;;;;;;;;;;;;;;;21.10;36.50;100621.78;2166975;40;113960;-58
2021/04/29 03:08:33;;;;;;;;;;;;;;;21.11;36.48;100617.81;2169730;40;113810;-58
2021/04/29 03:10:05;;;;;;;;;;;;;;;21.09;36.44;100628.53;2161491;40;114000;-57
2021/04/29 03:11:39;;;;;;;;;;;;;;;21.08;36.38;100621.25;2167494;40;114004;-57
2021/04/29 03:13:10;;;;;;;;;;;;;;;21.08;36.30;100621.25;2170850;40;113882;-61
2021/04/29 03:14:43;;;;;;;;;;;;;;;21.07;36.97;100626.06;2168783;40;113782;-59
2021/04/29 03:16:15;;;;;;;;;;;;;;;21.06;36.60;100627.22;2169517;40;115444;-56
2021/04/29 03:17:46;;;;;;;;;;;;;;;21.06;36.58;100624.41;2168196;40;115252;-56
2021/04/29 03:19:38;;;;;;;;;;;;;;;21.05;36.84;100625.53;2165823;40;117021;-59
2021/04/29 03:21:11;;;;;;;;;;;;;;;21.04;36.76;100623.03;2165408;40;114912;-58
2021/04/29 03:22:42;;;;;;;;;;;;;;;21.04;36.56;100625.84;2166060;40;115234;-58
2021/04/29 03:24:14;;;;;;;;;;;;;;;21.03;36.45;100633.44;2171138;40;114904;-58
2021/04/29 03:25:46;;;;;;;;;;;;;;;21.03;36.92;100629.84;2168843;40;114913;-56
2021/04/29 03:27:17;;;;;;;;;;;;;;;21.02;36.90;100630.97;2168198;40;114903;-59
2021/04/29 03:28:49;;;;;;;;;;;;;;;21.00;37.05;100633.25;2161259;40;115503;-58
2021/04/29 03:30:21;;;;;;;;;;;;;;;21.00;36.78;100633.25;2166131;40;115153;-60
2021/04/29 03:31:52;;;;;;;;;;;;;;;21.00;36.63;100638.88;2167949;40;115017;-58
2021/04/29 03:33:24;;;;;;;;;;;;;;;21.00;36.64;100636.06;2173159;40;115047;-56
2021/04/29 03:34:56;;;;;;;;;;;;;;;20.98;36.65;100630.78;2172210;40;114921;-58
2021/04/29 03:36:28;;;;;;;;;;;;;;;20.99;36.57;100628.78;2172528;40;115658;-58
2021/04/29 03:37:59;;;;;;;;;;;;;;;20.95;36.88;100627.75;2169697;40;114791;-59
2021/04/29 03:39:32;;;;;;;;;;;;;;;20.96;36.77;100630.28;2167359;40;115318;-57
2021/04/29 03:41:03;;;;;;;;;;;;;;;20.96;36.39;100635.06;2167696;40;115661;-59
2021/04/29 03:42:34;;;;;;;;;;;;;;;20.94;36.79;100634.56;2167194;40;115549;-57
2021/04/29 03:45:40;;;;;;;;;;;;;;;20.94;36.46;100632.56;2167649;40;115506;-57
2021/04/29 03:47:15;;;;;;;;;;;;;;;20.94;36.95;100637.38;2167692;40;114674;-56
2021/04/29 03:48:47;;;;;;;;;;;;;;;20.94;36.47;100634.56;2167484;40;114765;-58
2021/04/29 03:50:18;;;;;;;;;;;;;;;20.94;36.83;100634.56;2167230;40;115647;-59
2021/04/29 03:51:51;;;;;;;;;;;;;;;20.89;36.44;100638.31;2173055;40;115811;-55
2021/04/29 03:53:23;;;;;;;;;;;;;;;20.90;36.75;100641.94;2167710;40;115714;-56
2021/04/29 03:54:54;;;;;;;;;;;;;;;20.90;36.81;100637.16;2168492;40;115615;-59
2021/04/29 03:56:28;;;;;;;;;;;;;;;20.89;36.93;100635.50;2162494;40;116032;-59
2021/04/29 03:57:59;;;;;;;;;;;;;;;20.88;36.84;100644.25;2165460;40;113815;-58
2021/04/29 03:59:31;;;;;;;;;;;;;;;20.86;36.93;100645.38;2173771;40;113986;-57
2021/04/29 04:01:02;;;;;;;;;;;;;;;20.89;36.83;100645.91;2157206;40;115373;-57
2021/04/29 04:02:35;;;;;;;;;;;;;;;20.86;36.83;100645.38;2163144;40;113707;-58
2021/04/29 04:05:41;;;;;;;;;;;;;;;20.84;36.77;100644.91;2167676;40;113726;-58
2021/04/29 04:07:12;;;;;;;;;;;;;;;20.83;36.67;100646.03;2164976;40;114015;-57
2021/04/29 04:08:43;;;;;;;;;;;;;;;20.84;36.71;100649.69;2163662;40;113811;-56
2021/04/29 04:10:15;;;;;;;;;;;;;;;20.81;36.83;100653.94;2171538;40;113846;-54
2021/04/29 04:11:47;;;;;;;;;;;;;;;20.82;36.42;100646.34;2164554;40;114029;-58
2021/04/29 04:13:20;;;;;;;;;;;;;;;20.83;36.78;100656.44;2173156;40;114088;-55
2021/04/29 04:14:52;;;;;;;;;;;;;;;20.80;36.73;100655.06;2168473;40;113969;-54
2021/04/29 04:16:25;;;;;;;;;;;;;;;20.82;36.77;100655.59;2167539;40;113978;-54
2021/04/29 04:17:57;;;;;;;;;;;;;;;20.85;37.02;100654.13;2170246;40;113920;-55
2021/04/29 04:19:28;;;;;;;;;;;;;;;20.88;37.23;100658.28;2167093;40;115032;-58
2021/04/29 04:20:59;;;;;;;;;;;;;;;20.87;37.51;100657.47;2164379;40;114924;-58
2021/04/29 04:22:31;;;;;;;;;;;;;;;20.89;37.45;100660.78;2165212;40;114864;-54
2021/04/29 04:24:03;;;;;;;;;;;;;;;20.92;37.05;100665.75;2172122;40;115477;-57
2021/04/29 04:25:34;;;;;;;;;;;;;;;20.95;37.16;100665.13;2162593;40;114981;-58
2021/04/29 04:27:06;;;;;;;;;;;;;;;20.97;37.17;100670.44;2164622;40;114626;-56
2021/04/29 04:28:39;;;;;;;;;;;;;;;21.01;37.21;100677.06;2162870;40;115636;-57
2021/04/29 04:30:11;;;;;;;;;;;;;;;21.03;37.49;100671.97;2167508;40;114968;-57
2021/04/29 04:31:43;;;;;;;;;;;;;;;21.07;37.18;100670.19;2168195;40;114949;-59
2021/04/29 04:33:14;;;;;;;;;;;;;;;21.08;37.18;100681.06;2162603;40;115107;-59
2021/04/29 04:34:45;;;;;;;;;;;;;;;21.12;37.50;100672.88;2166018;40;114961;-55
2021/04/29 04:36:17;;;;;;;;;;;;;;;21.14;37.31;100668.59;2165764;40;114919;-56
2021/04/29 04:37:50;;;;;;;;;;;;;;;21.18;37.11;100680.03;2166901;40;115021;-55
2021/04/29 04:39:22;;;;;;;;;;;;;;;21.21;36.81;100673.78;2170787;40;115203;-55
2021/04/29 04:40:54;;;;;;;;;;;;;;;21.26;37.10;100676.44;2168310;40;115121;-54
2021/04/29 04:42:25;;;;;;;;;;;;;;;21.30;37.26;100674.69;2165677;40;114523;-58
2021/04/29 04:43:57;;;;;;;;;;;;;;;21.33;37.68;100678.81;2160294;40;115628;-55
2021/04/29 04:45:29;;;;;;;;;;;;;;;21.37;37.53;100675.03;2158985;40;116095;-54
2021/04/29 04:47:01;;;;;;;;;;;;;;;21.40;37.24;100684.81;2171284;40;116132;-54
2021/04/29 04:48:34;;;;;;;;;;;;;;;21.43;37.40;100685.00;2169263;40;115699;-55
2021/04/29 04:50:08;;;;;;;;;;;;;;;21.47;37.27;100691.66;2167673;40;116372;-57
2021/04/29 04:51:39;;;;;;;;;;;;;;;21.51;37.24;100680.59;2166851;40;116090;-58
2021/04/29 04:53:10;;;;;;;;;;;;;;;21.54;36.98;100692.00;2167650;40;116302;-58
2021/04/29 04:54:42;;;;;;;;;;;;;;;21.58;37.23;100684.59;2167851;40;115975;-55
2021/04/29 04:56:15;;;;;;;;;;;;;;;21.62;36.71;100682.00;2167603;40;114137;-55
2021/04/29 04:57:47;;;;;;;;;;;;;;;21.65;37.04;100686.97;2168041;40;115905;-57
2021/04/29 04:59:19;;;;;;;;;;;;;;;21.68;36.77;100694.75;2167052;40;115512;-59
2021/04/29 05:00:50;;;;;;;;;;;;;;;21.71;36.43;100689.28;2166540;40;115440;-55
2021/04/29 05:02:22;;;;;;;;;;;;;;;21.76;36.88;100690.34;2169785;40;115592;-56
2021/04/29 05:03:54;;;;;;;;;;;;;;;21.79;36.27;100692.50;2173607;40;114420;-55
2021/04/29 05:05:26;;;;;;;;;;;;;;;21.81;36.33;100696.63;2163536;40;114388;-56
2021/04/29 05:06:58;;;;;;;;;;;;;;;21.84;36.13;100693.19;2165687;40;114095;-57
2021/04/29 05:08:30;;;;;;;;;;;;;;;21.88;36.17;100701.78;2166881;40;114459;-54
2021/04/29 05:10:02;;;;;;;;;;;;;;;21.91;36.35;100696.34;2167382;40;113882;-57
2021/04/29 05:11:33;;;;;;;;;;;;;;;21.96;36.44;100709.47;2168073;40;113967;-55
2021/04/29 05:13:05;;;;;;;;;;;;;;;21.99;36.04;100703.19;2168106;40;113959;-60
2021/04/29 05:14:36;;;;;;;;;;;;;;;22.02;35.83;100705.38;2165556;40;113884;-60
2021/04/29 05:16:08;;;;;;;;;;;;;;;22.04;36.19;100708.69;2170380;40;113713;-58
2021/04/29 05:17:39;;;;;;;;;;;;;;;22.06;35.78;100701.59;2169950;40;113771;-54
2021/04/29 05:19:11;;;;;;;;;;;;;;;22.09;35.69;100700.09;2161336;40;113972;-58
2021/04/29 05:20:43;;;;;;;;;;;;;;;22.11;35.50;100704.25;2161618;40;114002;-59
2021/04/29 05:22:16;;;;;;;;;;;;;;;22.14;35.34;100703.59;2164225;40;113790;-57
2021/04/29 05:23:48;;;;;;;;;;;;;;;22.17;35.46;100705.75;2171100;40;114001;-55
2021/04/29 05:25:22;;;;;;;;;;;;;;;22.19;35.63;100705.44;2163228;40;115174;-56
2021/04/29 05:26:53;;;;;;;;;;;;;;;22.22;35.60;100706.75;2168456;40;113953;-53
2021/04/29 05:28:24;;;;;;;;;;;;;;;22.25;36.38;100711.75;2168271;40;114306;-57
2021/04/29 05:29:56;;;;;;;;;;;;;;;22.27;36.12;100710.25;2167412;40;115639;-56
2021/04/29 05:31:27;;;;;;;;;;;;;;;22.30;35.72;100715.25;2167631;40;115436;-56
2021/04/29 05:32:59;;;;;;;;;;;;;;;22.31;35.54;100714.06;2168488;40;115101;-57
2021/04/29 05:34:32;;;;;;;;;;;;;;;22.34;35.83;100719.06;2168521;40;114969;-54
2021/04/29 05:36:04;;;;;;;;;;;;;;;22.37;35.70;100711.94;2166743;40;115036;-55
2021/04/29 05:37:36;;;;;;;;;;;;;;;22.40;35.56;100719.72;2164662;40;114903;-57
2021/04/29 05:39:08;;;;;;;;;;;;;;;22.43;35.37;100721.91;2168793;40;114865;-57
2021/04/29 05:40:39;;;;;;;;;;;;;;;22.43;35.35;100727.53;2166585;40;115728;-56
2021/04/29 05:42:12;;;;;;;;;;;;;;;22.47;35.72;100726.56;2172880;40;114974;-55
2021/04/29 05:43:43;;;;;;;;;;;;;;;22.49;35.25;100724.22;2169753;40;114531;-56
2021/04/29 05:45:14;;;;;;;;;;;;;;;22.53;35.03;100730.06;2171153;40;115604;-54
2021/04/29 05:46:46;;;;;;;;;;;;;;;22.55;35.00;100737.00;2164741;40;116104;-55
2021/04/29 05:48:19;;;;;;;;;;;;;;;22.57;34.98;100729.06;2166839;40;116180;-56
2021/04/29 05:49:50;;;;;;;;;;;;;;;22.58;34.87;100733.53;2161083;40;115806;-58
2021/04/29 05:51:22;;;;;;;;;;;;;;;22.61;34.73;100732.91;2166269;40;115822;-56
2021/04/29 05:52:53;;;;;;;;;;;;;;;22.64;34.73;100734.22;2168128;40;116025;-55
2021/04/29 05:54:28;;;;;;;;;;;;;;;22.67;34.55;100738.38;2168339;40;115441;-54
2021/04/29 05:55:59;;;;;;;;;;;;;;;22.68;34.75;100743.66;2163483;40;115472;-55
2021/04/29 05:57:30;;;;;;;;;;;;;;;22.71;34.68;100745.88;2167456;40;115323;-59
2021/04/29 05:59:03;;;;;;;;;;;;;;;22.74;34.65;100741.56;2157893;40;115648;-57
2021/04/29 06:00:35;;;;;;;;;;;;;;;22.76;34.54;100744.88;2158982;40;116033;-57
2021/04/29 06:02:08;;;;;;;;;;;;;;;22.78;34.74;100740.56;2166351;40;115867;-57
2021/04/29 06:03:50;;;;;;;;;;;;;;;22.79;34.84;100749.84;2168120;40;115473;-58
2021/04/29 06:05:22;;;;;;;;;;;;;;;22.82;34.87;100744.38;2168104;40;116260;-55
2021/04/29 06:06:54;;;;;;;;;;;;;;;22.82;35.07;100747.22;2175876;40;115558;-59
2021/04/29 06:08:25;;;;;;;;;;;;;;;22.85;34.83;100748.56;2163773;40;114401;-60
2021/04/29 06:09:56;;;;;;;;;;;;;;;22.88;34.89;100748.72;2165659;40;113725;-59
2021/04/29 06:11:28;;;;;;;;;;;;;;;22.91;34.97;100744.41;2168222;40;113808;-58
2021/04/29 06:12:59;;;;;;;;;;;;;;;22.92;35.23;100748.88;2162181;40;114083;-59
2021/04/29 06:14:31;;;;;;;;;;;;;;;22.94;34.94;100752.22;2164668;40;113964;-57
2021/04/29 06:16:03;;;;;;;;;;;;;;;22.96;34.91;100756.34;2164560;40;114236;-58
2021/04/29 06:17:36;;;;;;;;;;;;;;;22.98;34.63;100756.84;2163404;40;113674;-58
2021/04/29 06:19:08;;;;;;;;;;;;;;;22.99;34.91;100758.50;2164791;40;113626;-57
2021/04/29 06:20:40;;;;;;;;;;;;;;;23.01;35.05;100766.63;2163466;40;113750;-58
2021/04/29 06:22:12;;;;;;;;;;;;;;;23.02;34.95;100766.31;2168383;40;114203;-56
2021/04/29 06:23:44;;;;;;;;;;;;;;;23.04;35.09;100763.97;2166795;40;114074;-54
2021/04/29 06:25:16;;;;;;;;;;;;;;;23.05;34.58;100761.97;2160901;40;114237;-56
2021/04/29 06:26:47;;;;;;;;;;;;;;;23.07;34.47;100759.69;2163388;40;114199;-56
2021/04/29 06:28:19;;;;;;;;;;;;;;;23.10;34.39;100755.34;2165908;40;114149;-58
2021/04/29 06:29:51;;;;;;;;;;;;;;;23.10;34.34;100759.00;2168596;40;113902;-57
2021/04/29 06:31:22;;;;;;;;;;;;;;;23.11;34.19;100763.50;2166838;40;114932;-58
2021/04/29 06:32:54;;;;;;;;;;;;;;;23.13;34.00;100765.97;2158076;40;115028;-55
2021/04/29 06:34:26;;;;;;;;;;;;;;;23.13;34.01;100769.63;2165226;40;115071;-58
2021/04/29 06:35:58;;;;;;;;;;;;;;;23.13;33.94;100768.78;2168114;40;114934;-55
2021/04/29 06:37:30;;;;;;;;;;;;;;;23.14;33.79;100776.09;2167897;40;114805;-55
2021/04/29 06:39:01;;;;;;;;;;;;;;;23.13;33.71;100766.78;2168371;40;114912;-57
2021/04/29 06:40:33;;;;;;;;;;;;;;;23.12;34.00;100773.63;2166706;40;114920;-55
2021/04/29 06:42:07;;;;;;;;;;;;;;;23.12;33.35;100776.44;2167684;40;114918;-55
2021/04/29 06:43:39;;;;;;;;;;;;;;;23.11;33.28;100780.41;2166675;40;115277;-58
2021/04/29 06:45:11;;;;;;;;;;;;;;;23.08;33.24;100777.41;2167669;40;114857;-55
2021/04/29 06:46:45;;;;;;;;;;;;;;;23.07;32.85;100778.56;2164366;40;114844;-59
2021/04/29 06:48:17;;;;;;;;;;;;;;;23.02;32.78;100774.75;2168201;40;115257;-57
2021/04/29 06:49:49;;;;;;;;;;;;;;;23.00;32.49;100776.22;2167003;40;114935;-59
2021/04/29 06:51:20;;;;;;;;;;;;;;;22.98;32.23;100773.75;2169624;40;115127;-56
2021/04/29 06:53:07;;;;;;;;;;;;;;;22.95;32.22;100777.22;2164949;40;115219;-59
2021/04/29 06:54:38;;;;;;;;;;;;;;;22.92;32.04;100775.06;2165640;40;115542;-56
2021/04/29 06:56:10;;;;;;;;;;;;;;;22.90;31.74;100779.34;2168120;40;115588;-55
2021/04/29 06:57:43;;;;;;;;;;;;;;;22.88;31.53;100785.34;2161286;40;115889;-57
2021/04/29 06:59:14;;;;;;;;;;;;;;;22.88;31.87;100784.50;2165708;40;114820;-57
2021/04/29 07:00:46;;;;;;;;;;;;;;;22.86;31.66;100784.00;2167352;40;115087;-59
2021/04/29 07:02:17;;;;;;;;;;;;;;;22.80;31.91;100788.16;2168000;40;116001;-60
2021/04/29 07:03:58;;;;;;;;;;;;;;;22.81;31.77;100784.97;2167151;40;114614;-57
2021/04/29 07:05:29;;;;;;;;;;;;;;;22.80;32.27;100777.72;2168277;40;115815;-58
2021/04/29 07:07:00;;;;;;;;;;;;;;;22.80;32.15;100782.50;2168191;40;115933;-55
2021/04/29 07:08:33;;;;;;;;;;;;;;;22.74;32.22;100783.81;2163771;40;114572;-59
2021/04/29 07:10:04;;;;;;;;;;;;;;;22.60;31.35;100781.91;2166065;40;115602;-57
2021/04/29 07:11:36;;;;;;;;;;;;;;;22.27;28.49;100780.63;2171616;40;116537;-57
2021/04/29 07:13:07;;;;;;;;;;;;;;;21.91;28.10;100777.94;2171517;40;115610;-58
2021/04/29 07:14:39;;;;;;;;;;;;;;;22.00;28.61;100781.66;2167025;40;114181;-61
2021/04/29 07:16:10;;;;;;;;;;;;;;;22.14;29.93;100787.19;2165262;40;113831;-56
2021/04/29 07:17:42;;;;;;;;;;;;;;;22.18;29.78;100777.78;2166362;40;114003;-58
2021/04/29 07:19:13;;;;;;;;;;;;;;;22.18;30.50;100786.22;2165563;40;114064;-58
2021/04/29 07:20:45;;;;;;;;;;;;;;;22.24;30.34;100786.06;2163547;40;114262;-58
2021/04/29 07:22:16;;;;;;;;;;;;;;;22.24;29.50;100788.88;2165759;40;113956;-55
2021/04/29 07:23:49;;;;;;;;;;;;;;;22.18;30.20;100791.00;2172839;40;113763;-56
2021/04/29 07:25:23;;;;;;;;;;;;;;;22.13;30.28;100791.97;2168037;40;114308;-57
2021/04/29 07:26:54;;;;;;;;;;;;;;;22.11;30.63;100793.47;2165881;40;114825;-54
2021/04/29 07:28:27;;;;;;;;;;;;;;;22.17;30.28;100797.78;2166380;40;113705;-57
2021/04/29 07:29:58;;;;;;;;;;;;;;;22.14;30.12;100796.47;2165076;40;114169;-56
2021/04/29 07:31:30;;;;;;;;;;;;;;;22.14;29.97;100795.63;2163820;40;114538;-54
2021/04/29 07:33:20;;;;;;;;;;;;;;;22.10;29.86;100801.06;2164483;40;113944;-55
2021/04/29 07:34:52;;;;;;;;;;;;;;;22.08;30.45;100802.53;2166758;40;113943;-54
2021/04/29 07:36:25;;;;;;;;;;;;;;;22.08;30.12;100799.72;2165202;40;114930;-54
2021/04/29 07:37:56;;;;;;;;;;;;;;;22.02;30.11;100798.22;2162723;40;115007;-56
2021/04/29 07:39:27;;;;;;;;;;;;;;;22.03;30.03;100803.50;2164233;40;114965;-53
2021/04/29 07:40:59;;;;;;;;;;;;;;;22.02;29.79;100801.88;2160076;40;114936;-54
2021/04/29 07:42:30;;;;;;;;;;;;;;;22.00;29.67;100804.16;2162650;40;114347;-56
2021/04/29 07:44:04;;;;;;;;;;;;;;;21.97;30.31;100806.78;2162156;40;113795;-53
2021/04/29 07:45:37;;;;;;;;;;;;;;;21.94;30.29;100802.63;2161262;40;115380;-53
2021/04/29 07:47:08;;;;;;;;;;;;;;;21.93;30.04;100809.44;2163045;40;115405;-54
2021/04/29 07:48:40;;;;;;;;;;;;;;;21.92;30.02;100812.50;2162858;40;114911;-58
2021/04/29 07:50:13;;;;;;;;;;;;;;;21.87;30.13;100802.22;2166586;40;115334;-55
2021/04/29 07:51:45;;;;;;;;;;;;;;;21.89;30.69;100813.16;2167216;40;116002;-55
2021/04/29 07:53:17;;;;;;;;;;;;;;;21.86;30.43;100799.72;2165610;40;115003;-56
2021/04/29 07:54:50;;;;;;;;;;;;;;;21.88;30.58;100801.09;2173746;40;115294;-52